sensor_id;sensor_type;location;lat;lon;timestamp;P1;durP1;ratioP1;P2;durP2;ratioP2
75289;SDS011;63883;48.996;20.804;2023-05-29T00:02:07;3.72;;;2.70;;
75289;SDS011;63883;48.996;20.804;2023-05-29T00:04:33;4.82;;;2.78;;
75289;SDS011;63883;48.996;20.804;2023-05-29T00:06:59;4.40;;;2.70;;
75289;SDS011;63883;48.996;20.804;2023-05-29T00:09:25;4.47;;;2.72;;
75289;SDS011;63883;48.996;20.804;2023-05-29T00:11:51;5.38;;;3.05;;
75289;SDS011;63883;48.996;20.804;2023-05-29T00:14:18;5.60;;;2.90;;
75289;SDS011;63883;48.996;20.804;2023-05-29T00:16:45;4.15;;;2.83;;
75289;SDS011;63883;48.996;20.804;2023-05-29T00:19:12;6.18;;;2.67;;
75289;SDS011;63883;48.996;20.804;2023-05-29T00:21:39;5.88;;;3.10;;
75289;SDS011;63883;48.996;20.804;2023-05-29T00:24:05;5.90;;;3.10;;
75289;SDS011;63883;48.996;20.804;2023-05-29T00:26:31;6.90;;;2.90;;
75289;SDS011;63883;48.996;20.804;2023-05-29T00:28:57;3.47;;;2.67;;
75289;SDS011;63883;48.996;20.804;2023-05-29T00:31:22;5.00;;;3.00;;
75289;SDS011;63883;48.996;20.804;2023-05-29T00:33:49;5.95;;;3.03;;
75289;SDS011;63883;48.996;20.804;2023-05-29T00:36:15;4.53;;;3.00;;
75289;SDS011;63883;48.996;20.804;2023-05-29T00:38:41;6.15;;;2.75;;
75289;SDS011;63883;48.996;20.804;2023-05-29T00:41:07;5.68;;;3.00;;
75289;SDS011;63883;48.996;20.804;2023-05-29T00:43:37;4.32;;;3.13;;
75289;SDS011;63883;48.996;20.804;2023-05-29T00:46:03;5.43;;;2.75;;
75289;SDS011;63883;48.996;20.804;2023-05-29T00:48:29;4.78;;;2.60;;
75289;SDS011;63883;48.996;20.804;2023-05-29T00:50:55;4.38;;;2.90;;
75289;SDS011;63883;48.996;20.804;2023-05-29T00:53:21;5.30;;;2.90;;
75289;SDS011;63883;48.996;20.804;2023-05-29T00:55:48;5.75;;;3.33;;
75289;SDS011;63883;48.996;20.804;2023-05-29T00:58:14;5.05;;;3.00;;
75289;SDS011;63883;48.996;20.804;2023-05-29T01:00:40;4.20;;;2.83;;
75289;SDS011;63883;48.996;20.804;2023-05-29T01:03:06;4.35;;;2.80;;
75289;SDS011;63883;48.996;20.804;2023-05-29T01:05:33;4.60;;;2.78;;
75289;SDS011;63883;48.996;20.804;2023-05-29T01:13:13;8.57;;;3.10;;
75289;SDS011;63883;48.996;20.804;2023-05-29T01:18:57;4.18;;;2.65;;
75289;SDS011;63883;48.996;20.804;2023-05-29T01:27:12;5.07;;;2.85;;
75289;SDS011;63883;48.996;20.804;2023-05-29T01:29:42;3.97;;;3.00;;
75289;SDS011;63883;48.996;20.804;2023-05-29T01:32:09;5.68;;;2.85;;
75289;SDS011;63883;48.996;20.804;2023-05-29T01:34:36;5.03;;;2.72;;
75289;SDS011;63883;48.996;20.804;2023-05-29T01:37:02;6.25;;;2.95;;
75289;SDS011;63883;48.996;20.804;2023-05-29T01:39:27;4.65;;;3.08;;
75289;SDS011;63883;48.996;20.804;2023-05-29T01:41:54;4.75;;;3.28;;
75289;SDS011;63883;48.996;20.804;2023-05-29T01:44:21;4.70;;;2.85;;
75289;SDS011;63883;48.996;20.804;2023-05-29T01:46:48;4.63;;;2.83;;
75289;SDS011;63883;48.996;20.804;2023-05-29T01:49:14;4.00;;;2.88;;
75289;SDS011;63883;48.996;20.804;2023-05-29T01:51:42;5.18;;;3.40;;
75289;SDS011;63883;48.996;20.804;2023-05-29T01:54:08;5.30;;;2.90;;
75289;SDS011;63883;48.996;20.804;2023-05-29T01:56:34;6.13;;;3.15;;
75289;SDS011;63883;48.996;20.804;2023-05-29T01:59:01;4.45;;;2.97;;
75289;SDS011;63883;48.996;20.804;2023-05-29T02:01:28;4.80;;;2.90;;
75289;SDS011;63883;48.996;20.804;2023-05-29T02:03:54;5.00;;;3.00;;
75289;SDS011;63883;48.996;20.804;2023-05-29T02:06:20;4.55;;;2.80;;
75289;SDS011;63883;48.996;20.804;2023-05-29T02:08:45;7.05;;;3.47;;
75289;SDS011;63883;48.996;20.804;2023-05-29T02:11:12;5.50;;;3.00;;
75289;SDS011;63883;48.996;20.804;2023-05-29T02:13:37;4.82;;;3.13;;
75289;SDS011;63883;48.996;20.804;2023-05-29T02:16:03;4.03;;;2.60;;
75289;SDS011;63883;48.996;20.804;2023-05-29T02:18:29;4.55;;;2.80;;
75289;SDS011;63883;48.996;20.804;2023-05-29T02:20:56;4.65;;;3.17;;
75289;SDS011;63883;48.996;20.804;2023-05-29T02:23:22;4.00;;;2.70;;
75289;SDS011;63883;48.996;20.804;2023-05-29T02:25:47;5.38;;;3.08;;
75289;SDS011;63883;48.996;20.804;2023-05-29T02:28:13;4.82;;;3.10;;
75289;SDS011;63883;48.996;20.804;2023-05-29T02:30:39;4.53;;;3.25;;
75289;SDS011;63883;48.996;20.804;2023-05-29T02:33:05;4.97;;;3.15;;
75289;SDS011;63883;48.996;20.804;2023-05-29T02:35:31;5.68;;;3.42;;
75289;SDS011;63883;48.996;20.804;2023-05-29T02:37:57;6.15;;;3.05;;
75289;SDS011;63883;48.996;20.804;2023-05-29T02:40:23;4.70;;;2.88;;
75289;SDS011;63883;48.996;20.804;2023-05-29T02:42:49;4.10;;;2.90;;
75289;SDS011;63883;48.996;20.804;2023-05-29T02:45:16;6.53;;;3.25;;
75289;SDS011;63883;48.996;20.804;2023-05-29T02:47:41;4.45;;;2.90;;
75289;SDS011;63883;48.996;20.804;2023-05-29T02:50:07;6.85;;;3.10;;
75289;SDS011;63883;48.996;20.804;2023-05-29T02:52:34;7.28;;;3.28;;
75289;SDS011;63883;48.996;20.804;2023-05-29T02:55:02;6.05;;;2.92;;
75289;SDS011;63883;48.996;20.804;2023-05-29T02:57:29;5.32;;;3.10;;
75289;SDS011;63883;48.996;20.804;2023-05-29T02:59:55;4.90;;;2.83;;
75289;SDS011;63883;48.996;20.804;2023-05-29T03:02:20;5.00;;;2.78;;
75289;SDS011;63883;48.996;20.804;2023-05-29T03:04:46;4.80;;;2.63;;
75289;SDS011;63883;48.996;20.804;2023-05-29T03:07:15;4.72;;;3.30;;
75289;SDS011;63883;48.996;20.804;2023-05-29T03:09:41;4.75;;;3.05;;
75289;SDS011;63883;48.996;20.804;2023-05-29T03:12:06;7.03;;;3.13;;
75289;SDS011;63883;48.996;20.804;2023-05-29T03:14:33;4.78;;;2.97;;
75289;SDS011;63883;48.996;20.804;2023-05-29T03:17:04;4.43;;;3.28;;
75289;SDS011;63883;48.996;20.804;2023-05-29T03:19:31;4.63;;;2.80;;
75289;SDS011;63883;48.996;20.804;2023-05-29T03:21:56;4.97;;;3.05;;
75289;SDS011;63883;48.996;20.804;2023-05-29T03:24:22;5.10;;;2.95;;
75289;SDS011;63883;48.996;20.804;2023-05-29T03:26:49;4.78;;;3.05;;
75289;SDS011;63883;48.996;20.804;2023-05-29T03:29:15;6.10;;;3.03;;
75289;SDS011;63883;48.996;20.804;2023-05-29T03:31:42;4.43;;;2.85;;
75289;SDS011;63883;48.996;20.804;2023-05-29T03:34:08;6.30;;;3.28;;
75289;SDS011;63883;48.996;20.804;2023-05-29T03:36:33;4.90;;;3.03;;
75289;SDS011;63883;48.996;20.804;2023-05-29T03:39:05;6.47;;;3.53;;
75289;SDS011;63883;48.996;20.804;2023-05-29T03:41:31;6.65;;;3.30;;
75289;SDS011;63883;48.996;20.804;2023-05-29T03:43:57;4.47;;;3.00;;
75289;SDS011;63883;48.996;20.804;2023-05-29T03:46:22;4.47;;;2.90;;
75289;SDS011;63883;48.996;20.804;2023-05-29T03:48:48;5.50;;;2.72;;
75289;SDS011;63883;48.996;20.804;2023-05-29T03:51:14;5.22;;;3.20;;
75289;SDS011;63883;48.996;20.804;2023-05-29T03:53:39;6.65;;;3.38;;
75289;SDS011;63883;48.996;20.804;2023-05-29T03:56:05;8.38;;;3.60;;
75289;SDS011;63883;48.996;20.804;2023-05-29T03:58:31;6.22;;;3.30;;
75289;SDS011;63883;48.996;20.804;2023-05-29T04:00:56;4.55;;;3.05;;
75289;SDS011;63883;48.996;20.804;2023-05-29T04:03:22;6.93;;;3.50;;
75289;SDS011;63883;48.996;20.804;2023-05-29T04:05:48;5.47;;;3.35;;
75289;SDS011;63883;48.996;20.804;2023-05-29T04:08:14;6.13;;;3.60;;
75289;SDS011;63883;48.996;20.804;2023-05-29T04:10:40;6.07;;;3.13;;
75289;SDS011;63883;48.996;20.804;2023-05-29T04:13:05;6.30;;;3.45;;
75289;SDS011;63883;48.996;20.804;2023-05-29T04:15:31;5.10;;;3.40;;
75289;SDS011;63883;48.996;20.804;2023-05-29T04:17:58;6.93;;;3.05;;
75289;SDS011;63883;48.996;20.804;2023-05-29T04:20:24;6.65;;;3.40;;
75289;SDS011;63883;48.996;20.804;2023-05-29T04:22:50;5.40;;;3.40;;
75289;SDS011;63883;48.996;20.804;2023-05-29T04:25:16;7.40;;;3.53;;
75289;SDS011;63883;48.996;20.804;2023-05-29T04:27:43;6.60;;;3.60;;
75289;SDS011;63883;48.996;20.804;2023-05-29T04:30:15;5.97;;;3.78;;
75289;SDS011;63883;48.996;20.804;2023-05-29T04:32:41;6.70;;;3.80;;
75289;SDS011;63883;48.996;20.804;2023-05-29T04:35:08;5.70;;;3.10;;
75289;SDS011;63883;48.996;20.804;2023-05-29T04:37:35;5.82;;;3.45;;
75289;SDS011;63883;48.996;20.804;2023-05-29T04:40:07;6.15;;;3.30;;
75289;SDS011;63883;48.996;20.804;2023-05-29T04:42:35;6.60;;;3.20;;
75289;SDS011;63883;48.996;20.804;2023-05-29T04:45:01;6.38;;;3.40;;
75289;SDS011;63883;48.996;20.804;2023-05-29T04:47:30;6.60;;;3.80;;
75289;SDS011;63883;48.996;20.804;2023-05-29T04:49:58;6.60;;;3.70;;
75289;SDS011;63883;48.996;20.804;2023-05-29T04:52:25;6.57;;;3.50;;
75289;SDS011;63883;48.996;20.804;2023-05-29T04:54:50;9.18;;;3.75;;
75289;SDS011;63883;48.996;20.804;2023-05-29T04:57:17;6.65;;;3.50;;
75289;SDS011;63883;48.996;20.804;2023-05-29T04:59:43;5.82;;;3.67;;
75289;SDS011;63883;48.996;20.804;2023-05-29T05:02:09;7.13;;;3.55;;
75289;SDS011;63883;48.996;20.804;2023-05-29T05:04:34;7.45;;;4.20;;
75289;SDS011;63883;48.996;20.804;2023-05-29T05:07:00;5.88;;;3.80;;
75289;SDS011;63883;48.996;20.804;2023-05-29T05:09:27;8.40;;;4.03;;
75289;SDS011;63883;48.996;20.804;2023-05-29T05:11:53;8.48;;;3.90;;
75289;SDS011;63883;48.996;20.804;2023-05-29T05:14:18;9.35;;;3.90;;
75289;SDS011;63883;48.996;20.804;2023-05-29T05:16:44;5.50;;;3.35;;
75289;SDS011;63883;48.996;20.804;2023-05-29T05:19:09;4.57;;;3.33;;
75289;SDS011;63883;48.996;20.804;2023-05-29T05:21:36;7.07;;;3.58;;
75289;SDS011;63883;48.996;20.804;2023-05-29T05:24:01;6.10;;;3.65;;
75289;SDS011;63883;48.996;20.804;2023-05-29T05:26:27;7.13;;;3.50;;
75289;SDS011;63883;48.996;20.804;2023-05-29T05:28:53;6.85;;;3.67;;
75289;SDS011;63883;48.996;20.804;2023-05-29T05:31:19;6.78;;;3.60;;
75289;SDS011;63883;48.996;20.804;2023-05-29T05:33:44;4.97;;;3.83;;
75289;SDS011;63883;48.996;20.804;2023-05-29T05:36:10;6.60;;;3.38;;
75289;SDS011;63883;48.996;20.804;2023-05-29T05:38:36;9.10;;;4.00;;
75289;SDS011;63883;48.996;20.804;2023-05-29T05:41:02;8.30;;;3.67;;
75289;SDS011;63883;48.996;20.804;2023-05-29T05:43:27;5.63;;;3.70;;
75289;SDS011;63883;48.996;20.804;2023-05-29T05:45:54;6.55;;;3.97;;
75289;SDS011;63883;48.996;20.804;2023-05-29T05:48:20;7.28;;;4.07;;
75289;SDS011;63883;48.996;20.804;2023-05-29T05:50:45;5.97;;;3.60;;
75289;SDS011;63883;48.996;20.804;2023-05-29T05:53:11;4.63;;;3.42;;
75289;SDS011;63883;48.996;20.804;2023-05-29T05:55:37;5.32;;;3.42;;
75289;SDS011;63883;48.996;20.804;2023-05-29T05:58:02;6.40;;;3.22;;
75289;SDS011;63883;48.996;20.804;2023-05-29T06:00:28;5.15;;;3.50;;
75289;SDS011;63883;48.996;20.804;2023-05-29T06:02:54;6.68;;;3.42;;
75289;SDS011;63883;48.996;20.804;2023-05-29T06:05:20;5.13;;;3.28;;
75289;SDS011;63883;48.996;20.804;2023-05-29T06:07:46;9.30;;;3.28;;
75289;SDS011;63883;48.996;20.804;2023-05-29T06:10:12;5.00;;;3.13;;
75289;SDS011;63883;48.996;20.804;2023-05-29T06:12:38;6.38;;;3.22;;
75289;SDS011;63883;48.996;20.804;2023-05-29T06:15:04;5.40;;;3.35;;
75289;SDS011;63883;48.996;20.804;2023-05-29T06:17:30;5.97;;;3.10;;
75289;SDS011;63883;48.996;20.804;2023-05-29T06:19:57;4.90;;;3.10;;
75289;SDS011;63883;48.996;20.804;2023-05-29T06:22:22;6.50;;;3.33;;
75289;SDS011;63883;48.996;20.804;2023-05-29T06:24:48;4.75;;;3.08;;
75289;SDS011;63883;48.996;20.804;2023-05-29T06:27:13;9.65;;;3.63;;
75289;SDS011;63883;48.996;20.804;2023-05-29T06:29:40;5.57;;;3.33;;
75289;SDS011;63883;48.996;20.804;2023-05-29T06:32:05;6.15;;;2.97;;
75289;SDS011;63883;48.996;20.804;2023-05-29T06:34:31;6.72;;;3.45;;
75289;SDS011;63883;48.996;20.804;2023-05-29T06:37:00;5.05;;;3.17;;
75289;SDS011;63883;48.996;20.804;2023-05-29T06:39:25;5.30;;;3.38;;
75289;SDS011;63883;48.996;20.804;2023-05-29T06:41:51;7.10;;;3.45;;
75289;SDS011;63883;48.996;20.804;2023-05-29T06:44:17;4.75;;;3.30;;
75289;SDS011;63883;48.996;20.804;2023-05-29T06:46:42;4.40;;;3.20;;
75289;SDS011;63883;48.996;20.804;2023-05-29T06:49:08;4.47;;;3.10;;
75289;SDS011;63883;48.996;20.804;2023-05-29T06:51:36;5.63;;;3.53;;
75289;SDS011;63883;48.996;20.804;2023-05-29T06:54:02;4.07;;;3.05;;
75289;SDS011;63883;48.996;20.804;2023-05-29T06:56:28;4.57;;;3.15;;
75289;SDS011;63883;48.996;20.804;2023-05-29T06:58:55;4.75;;;3.40;;
75289;SDS011;63883;48.996;20.804;2023-05-29T07:01:21;8.77;;;4.22;;
75289;SDS011;63883;48.996;20.804;2023-05-29T07:03:51;4.68;;;3.00;;
75289;SDS011;63883;48.996;20.804;2023-05-29T07:06:17;5.63;;;3.50;;
75289;SDS011;63883;48.996;20.804;2023-05-29T07:08:43;4.45;;;2.80;;
75289;SDS011;63883;48.996;20.804;2023-05-29T07:11:08;5.53;;;3.10;;
75289;SDS011;63883;48.996;20.804;2023-05-29T07:13:35;5.15;;;2.83;;
75289;SDS011;63883;48.996;20.804;2023-05-29T07:16:00;4.63;;;2.97;;
75289;SDS011;63883;48.996;20.804;2023-05-29T07:18:26;7.43;;;3.00;;
75289;SDS011;63883;48.996;20.804;2023-05-29T07:20:52;3.83;;;2.80;;
75289;SDS011;63883;48.996;20.804;2023-05-29T07:23:19;5.30;;;2.70;;
75289;SDS011;63883;48.996;20.804;2023-05-29T07:25:44;5.20;;;2.83;;
75289;SDS011;63883;48.996;20.804;2023-05-29T07:28:10;4.55;;;2.83;;
75289;SDS011;63883;48.996;20.804;2023-05-29T07:30:36;5.18;;;3.35;;
75289;SDS011;63883;48.996;20.804;2023-05-29T07:33:01;5.43;;;3.10;;
75289;SDS011;63883;48.996;20.804;2023-05-29T07:35:27;4.13;;;2.92;;
75289;SDS011;63883;48.996;20.804;2023-05-29T07:37:53;5.15;;;3.05;;
75289;SDS011;63883;48.996;20.804;2023-05-29T07:40:19;6.15;;;3.13;;
75289;SDS011;63883;48.996;20.804;2023-05-29T07:42:45;4.60;;;2.88;;
75289;SDS011;63883;48.996;20.804;2023-05-29T07:45:10;8.52;;;3.00;;
75289;SDS011;63883;48.996;20.804;2023-05-29T07:47:36;5.22;;;3.03;;
75289;SDS011;63883;48.996;20.804;2023-05-29T07:50:02;5.20;;;3.13;;
75289;SDS011;63883;48.996;20.804;2023-05-29T07:52:28;5.28;;;2.90;;
75289;SDS011;63883;48.996;20.804;2023-05-29T07:54:53;6.30;;;3.28;;
75289;SDS011;63883;48.996;20.804;2023-05-29T07:57:19;3.90;;;2.65;;
75289;SDS011;63883;48.996;20.804;2023-05-29T07:59:45;4.47;;;2.72;;
75289;SDS011;63883;48.996;20.804;2023-05-29T08:02:15;5.63;;;2.75;;
75289;SDS011;63883;48.996;20.804;2023-05-29T08:04:41;5.20;;;3.17;;
75289;SDS011;63883;48.996;20.804;2023-05-29T08:07:07;4.97;;;2.85;;
75289;SDS011;63883;48.996;20.804;2023-05-29T08:09:35;3.90;;;3.13;;
75289;SDS011;63883;48.996;20.804;2023-05-29T08:12:01;4.22;;;3.03;;
75289;SDS011;63883;48.996;20.804;2023-05-29T08:14:27;4.53;;;3.28;;
75289;SDS011;63883;48.996;20.804;2023-05-29T08:16:53;4.25;;;2.88;;
75289;SDS011;63883;48.996;20.804;2023-05-29T08:19:18;6.45;;;2.95;;
75289;SDS011;63883;48.996;20.804;2023-05-29T08:21:44;6.22;;;3.00;;
75289;SDS011;63883;48.996;20.804;2023-05-29T08:24:10;6.22;;;3.17;;
75289;SDS011;63883;48.996;20.804;2023-05-29T08:26:36;5.82;;;3.05;;
75289;SDS011;63883;48.996;20.804;2023-05-29T08:29:01;4.28;;;2.83;;
75289;SDS011;63883;48.996;20.804;2023-05-29T08:31:27;4.40;;;3.05;;
75289;SDS011;63883;48.996;20.804;2023-05-29T08:33:53;5.18;;;3.30;;
75289;SDS011;63883;48.996;20.804;2023-05-29T08:36:19;5.40;;;3.00;;
75289;SDS011;63883;48.996;20.804;2023-05-29T08:38:48;5.22;;;3.15;;
75289;SDS011;63883;48.996;20.804;2023-05-29T08:41:20;3.78;;;3.03;;
75289;SDS011;63883;48.996;20.804;2023-05-29T08:43:50;5.18;;;3.10;;
75289;SDS011;63883;48.996;20.804;2023-05-29T08:48:47;4.55;;;3.05;;
75289;SDS011;63883;48.996;20.804;2023-05-29T08:51:16;5.22;;;3.08;;
75289;SDS011;63883;48.996;20.804;2023-05-29T08:53:46;4.88;;;2.97;;
75289;SDS011;63883;48.996;20.804;2023-05-29T08:56:13;5.25;;;3.03;;
75289;SDS011;63883;48.996;20.804;2023-05-29T08:58:38;5.57;;;2.90;;
75289;SDS011;63883;48.996;20.804;2023-05-29T09:01:04;4.63;;;2.97;;
75289;SDS011;63883;48.996;20.804;2023-05-29T09:03:30;5.85;;;3.53;;
75289;SDS011;63883;48.996;20.804;2023-05-29T09:05:59;4.55;;;3.00;;
75289;SDS011;63883;48.996;20.804;2023-05-29T09:08:25;6.20;;;3.50;;
75289;SDS011;63883;48.996;20.804;2023-05-29T09:10:52;4.53;;;3.20;;
75289;SDS011;63883;48.996;20.804;2023-05-29T09:13:18;5.70;;;3.20;;
75289;SDS011;63883;48.996;20.804;2023-05-29T09:15:44;7.75;;;3.33;;
75289;SDS011;63883;48.996;20.804;2023-05-29T09:18:10;5.10;;;3.15;;
75289;SDS011;63883;48.996;20.804;2023-05-29T09:20:36;4.88;;;3.30;;
75289;SDS011;63883;48.996;20.804;2023-05-29T09:23:03;5.32;;;3.40;;
75289;SDS011;63883;48.996;20.804;2023-05-29T09:25:31;5.78;;;3.40;;
75289;SDS011;63883;48.996;20.804;2023-05-29T09:28:02;6.80;;;3.30;;
75289;SDS011;63883;48.996;20.804;2023-05-29T09:30:31;5.88;;;3.45;;
75289;SDS011;63883;48.996;20.804;2023-05-29T09:32:59;4.22;;;3.25;;
75289;SDS011;63883;48.996;20.804;2023-05-29T09:35:33;5.97;;;3.53;;
75289;SDS011;63883;48.996;20.804;2023-05-29T09:37:59;5.68;;;3.47;;
75289;SDS011;63883;48.996;20.804;2023-05-29T09:40:25;6.05;;;3.60;;
75289;SDS011;63883;48.996;20.804;2023-05-29T09:42:50;5.70;;;3.60;;
75289;SDS011;63883;48.996;20.804;2023-05-29T09:45:17;6.22;;;3.38;;
75289;SDS011;63883;48.996;20.804;2023-05-29T09:47:43;9.10;;;3.50;;
75289;SDS011;63883;48.996;20.804;2023-05-29T09:50:17;5.63;;;3.35;;
75289;SDS011;63883;48.996;20.804;2023-05-29T09:52:45;7.13;;;3.50;;
75289;SDS011;63883;48.996;20.804;2023-05-29T09:55:13;7.03;;;3.33;;
75289;SDS011;63883;48.996;20.804;2023-05-29T09:57:44;6.30;;;3.65;;
75289;SDS011;63883;48.996;20.804;2023-05-29T10:00:12;5.43;;;3.35;;
75289;SDS011;63883;48.996;20.804;2023-05-29T10:02:39;8.05;;;3.60;;
75289;SDS011;63883;48.996;20.804;2023-05-29T10:05:06;5.70;;;3.50;;
75289;SDS011;63883;48.996;20.804;2023-05-29T10:07:37;5.28;;;3.70;;
75289;SDS011;63883;48.996;20.804;2023-05-29T10:10:04;4.70;;;3.70;;
75289;SDS011;63883;48.996;20.804;2023-05-29T10:12:34;6.50;;;3.90;;
75289;SDS011;63883;48.996;20.804;2023-05-29T10:15:05;7.15;;;3.40;;
75289;SDS011;63883;48.996;20.804;2023-05-29T10:17:37;5.90;;;3.60;;
75289;SDS011;63883;48.996;20.804;2023-05-29T10:22:35;5.97;;;3.80;;
75289;SDS011;63883;48.996;20.804;2023-05-29T10:25:09;4.95;;;3.70;;
75289;SDS011;63883;48.996;20.804;2023-05-29T10:27:36;5.25;;;3.80;;
75289;SDS011;63883;48.996;20.804;2023-05-29T10:30:04;5.70;;;4.00;;
75289;SDS011;63883;48.996;20.804;2023-05-29T10:32:42;6.30;;;4.00;;
75289;SDS011;63883;48.996;20.804;2023-05-29T10:38:12;6.30;;;3.95;;
75289;SDS011;63883;48.996;20.804;2023-05-29T10:50:41;6.03;;;3.95;;
75289;SDS011;63883;48.996;20.804;2023-05-29T10:53:14;6.50;;;3.88;;
75289;SDS011;63883;48.996;20.804;2023-05-29T10:55:48;6.35;;;4.10;;
75289;SDS011;63883;48.996;20.804;2023-05-29T10:58:21;6.07;;;3.90;;
75289;SDS011;63883;48.996;20.804;2023-05-29T11:00:51;7.60;;;4.05;;
75289;SDS011;63883;48.996;20.804;2023-05-29T11:03:22;4.90;;;3.90;;
75289;SDS011;63883;48.996;20.804;2023-05-29T11:05:59;5.32;;;3.83;;
75289;SDS011;63883;48.996;20.804;2023-05-29T11:11:07;6.05;;;3.88;;
75289;SDS011;63883;48.996;20.804;2023-05-29T11:13:37;6.65;;;4.18;;
75289;SDS011;63883;48.996;20.804;2023-05-29T11:18:50;5.25;;;3.85;;
75289;SDS011;63883;48.996;20.804;2023-05-29T11:21:22;8.60;;;4.10;;
75289;SDS011;63883;48.996;20.804;2023-05-29T11:24:12;6.65;;;4.22;;
75289;SDS011;63883;48.996;20.804;2023-05-29T11:26:58;5.78;;;4.18;;
75289;SDS011;63883;48.996;20.804;2023-05-29T11:29:29;6.68;;;4.30;;
75289;SDS011;63883;48.996;20.804;2023-05-29T11:32:01;6.45;;;4.22;;
75289;SDS011;63883;48.996;20.804;2023-05-29T11:34:28;6.53;;;4.03;;
75289;SDS011;63883;48.996;20.804;2023-05-29T11:36:59;6.30;;;4.28;;
75289;SDS011;63883;48.996;20.804;2023-05-29T11:39:26;5.72;;;4.30;;
75289;SDS011;63883;48.996;20.804;2023-05-29T11:41:52;7.10;;;4.22;;
75289;SDS011;63883;48.996;20.804;2023-05-29T11:44:19;5.18;;;3.72;;
75289;SDS011;63883;48.996;20.804;2023-05-29T11:46:45;5.65;;;3.80;;
75289;SDS011;63883;48.996;20.804;2023-05-29T11:49:11;5.63;;;4.13;;
75289;SDS011;63883;48.996;20.804;2023-05-29T11:51:37;6.82;;;3.88;;
75289;SDS011;63883;48.996;20.804;2023-05-29T11:54:07;5.32;;;3.97;;
75289;SDS011;63883;48.996;20.804;2023-05-29T11:56:32;6.55;;;3.90;;
75289;SDS011;63883;48.996;20.804;2023-05-29T11:58:58;6.03;;;4.20;;
75289;SDS011;63883;48.996;20.804;2023-05-29T12:01:25;9.90;;;4.55;;
75289;SDS011;63883;48.996;20.804;2023-05-29T12:03:52;6.07;;;4.15;;
75289;SDS011;63883;48.996;20.804;2023-05-29T12:06:35;5.82;;;4.07;;
75289;SDS011;63883;48.996;20.804;2023-05-29T12:09:03;5.30;;;4.00;;
75289;SDS011;63883;48.996;20.804;2023-05-29T12:11:30;7.93;;;4.45;;
75289;SDS011;63883;48.996;20.804;2023-05-29T12:13:57;5.38;;;4.10;;
75289;SDS011;63883;48.996;20.804;2023-05-29T12:16:30;5.95;;;4.25;;
75289;SDS011;63883;48.996;20.804;2023-05-29T12:18:59;6.60;;;4.32;;
75289;SDS011;63883;48.996;20.804;2023-05-29T12:21:26;7.35;;;4.75;;
75289;SDS011;63883;48.996;20.804;2023-05-29T12:23:52;5.63;;;4.43;;
75289;SDS011;63883;48.996;20.804;2023-05-29T12:26:23;5.22;;;4.28;;
75289;SDS011;63883;48.996;20.804;2023-05-29T12:28:51;6.72;;;4.38;;
75289;SDS011;63883;48.996;20.804;2023-05-29T12:31:27;6.13;;;4.47;;
75289;SDS011;63883;48.996;20.804;2023-05-29T12:33:54;6.30;;;4.40;;
75289;SDS011;63883;48.996;20.804;2023-05-29T12:36:25;6.57;;;4.88;;
75289;SDS011;63883;48.996;20.804;2023-05-29T12:38:51;6.05;;;4.53;;
75289;SDS011;63883;48.996;20.804;2023-05-29T12:41:24;5.93;;;4.60;;
75289;SDS011;63883;48.996;20.804;2023-05-29T12:43:54;7.18;;;4.60;;
75289;SDS011;63883;48.996;20.804;2023-05-29T12:46:27;6.30;;;4.38;;
75289;SDS011;63883;48.996;20.804;2023-05-29T12:48:53;7.07;;;4.45;;
75289;SDS011;63883;48.996;20.804;2023-05-29T12:51:24;9.52;;;4.25;;
75289;SDS011;63883;48.996;20.804;2023-05-29T12:53:53;5.95;;;4.45;;
75289;SDS011;63883;48.996;20.804;2023-05-29T12:56:24;9.30;;;4.57;;
75289;SDS011;63883;48.996;20.804;2023-05-29T12:58:51;7.60;;;4.38;;
75289;SDS011;63883;48.996;20.804;2023-05-29T13:01:17;6.07;;;4.55;;
75289;SDS011;63883;48.996;20.804;2023-05-29T13:03:43;6.47;;;4.53;;
75289;SDS011;63883;48.996;20.804;2023-05-29T13:06:09;6.90;;;4.75;;
75289;SDS011;63883;48.996;20.804;2023-05-29T13:08:35;6.43;;;4.43;;
75289;SDS011;63883;48.996;20.804;2023-05-29T13:11:01;8.00;;;4.70;;
75289;SDS011;63883;48.996;20.804;2023-05-29T13:13:27;5.28;;;4.30;;
75289;SDS011;63883;48.996;20.804;2023-05-29T13:15:53;7.93;;;4.35;;
75289;SDS011;63883;48.996;20.804;2023-05-29T13:18:18;5.93;;;4.03;;
75289;SDS011;63883;48.996;20.804;2023-05-29T13:20:44;5.47;;;4.05;;
75289;SDS011;63883;48.996;20.804;2023-05-29T13:23:10;7.05;;;4.30;;
75289;SDS011;63883;48.996;20.804;2023-05-29T13:25:36;7.57;;;4.50;;
75289;SDS011;63883;48.996;20.804;2023-05-29T13:28:01;6.32;;;4.30;;
75289;SDS011;63883;48.996;20.804;2023-05-29T13:30:27;6.28;;;4.38;;
75289;SDS011;63883;48.996;20.804;2023-05-29T13:32:53;5.68;;;4.30;;
75289;SDS011;63883;48.996;20.804;2023-05-29T13:35:19;6.55;;;4.15;;
75289;SDS011;63883;48.996;20.804;2023-05-29T13:37:45;6.47;;;4.30;;
75289;SDS011;63883;48.996;20.804;2023-05-29T13:40:11;7.82;;;4.22;;
75289;SDS011;63883;48.996;20.804;2023-05-29T13:42:40;6.20;;;4.10;;
75289;SDS011;63883;48.996;20.804;2023-05-29T13:45:06;6.03;;;4.32;;
75289;SDS011;63883;48.996;20.804;2023-05-29T13:47:33;6.28;;;4.20;;
75289;SDS011;63883;48.996;20.804;2023-05-29T13:49:59;6.75;;;4.32;;
75289;SDS011;63883;48.996;20.804;2023-05-29T13:52:25;5.25;;;4.00;;
75289;SDS011;63883;48.996;20.804;2023-05-29T13:54:51;7.65;;;4.30;;
75289;SDS011;63883;48.996;20.804;2023-05-29T13:57:17;5.30;;;4.10;;
75289;SDS011;63883;48.996;20.804;2023-05-29T13:59:43;5.68;;;4.00;;
75289;SDS011;63883;48.996;20.804;2023-05-29T14:02:08;5.55;;;4.20;;
75289;SDS011;63883;48.996;20.804;2023-05-29T14:04:34;7.20;;;4.30;;
75289;SDS011;63883;48.996;20.804;2023-05-29T14:07:00;6.25;;;4.03;;
75289;SDS011;63883;48.996;20.804;2023-05-29T14:09:26;7.90;;;4.57;;
75289;SDS011;63883;48.996;20.804;2023-05-29T14:11:53;5.55;;;4.03;;
75289;SDS011;63883;48.996;20.804;2023-05-29T14:14:26;6.38;;;4.40;;
75289;SDS011;63883;48.996;20.804;2023-05-29T14:16:52;6.38;;;4.53;;
75289;SDS011;63883;48.996;20.804;2023-05-29T14:19:18;6.03;;;4.22;;
75289;SDS011;63883;48.996;20.804;2023-05-29T14:21:44;6.32;;;4.38;;
75289;SDS011;63883;48.996;20.804;2023-05-29T14:24:11;5.35;;;4.18;;
75289;SDS011;63883;48.996;20.804;2023-05-29T14:26:37;7.70;;;4.00;;
75289;SDS011;63883;48.996;20.804;2023-05-29T14:29:03;5.40;;;4.03;;
75289;SDS011;63883;48.996;20.804;2023-05-29T14:31:28;5.28;;;4.10;;
75289;SDS011;63883;48.996;20.804;2023-05-29T14:33:54;7.22;;;4.18;;
75289;SDS011;63883;48.996;20.804;2023-05-29T14:36:20;7.38;;;4.50;;
75289;SDS011;63883;48.996;20.804;2023-05-29T14:38:46;6.38;;;4.60;;
75289;SDS011;63883;48.996;20.804;2023-05-29T14:41:13;5.47;;;4.18;;
75289;SDS011;63883;48.996;20.804;2023-05-29T14:43:41;7.53;;;4.10;;
75289;SDS011;63883;48.996;20.804;2023-05-29T14:46:07;5.90;;;4.10;;
75289;SDS011;63883;48.996;20.804;2023-05-29T14:48:33;6.40;;;4.45;;
75289;SDS011;63883;48.996;20.804;2023-05-29T14:50:59;6.03;;;4.40;;
75289;SDS011;63883;48.996;20.804;2023-05-29T14:53:25;7.10;;;4.57;;
75289;SDS011;63883;48.996;20.804;2023-05-29T14:55:50;6.90;;;4.20;;
75289;SDS011;63883;48.996;20.804;2023-05-29T14:58:16;7.88;;;4.20;;
75289;SDS011;63883;48.996;20.804;2023-05-29T15:00:42;5.72;;;4.22;;
75289;SDS011;63883;48.996;20.804;2023-05-29T15:03:07;7.07;;;4.45;;
75289;SDS011;63883;48.996;20.804;2023-05-29T15:05:33;6.20;;;4.25;;
75289;SDS011;63883;48.996;20.804;2023-05-29T15:07:59;9.13;;;4.70;;
75289;SDS011;63883;48.996;20.804;2023-05-29T15:10:25;7.55;;;4.20;;